Quick Links (Output Below):   Max & Min Temps   /   Climate Reports   /   Zone Forecasts
River Forecasts   /   Forestry Forecasts   /   Aviation Forecasts   /   Radars   /   Features

Terminal Aerodrome Forecast (Mountain Home)

Pick a Site:
Arkadelphia | El Dorado | Fayetteville | Fort Smith | Harrison | Highfill | Hot Springs | Jonesboro
Little Rock | Monticello | Mountain Home | Pine Bluff | Texarkana
 Forecast 

KBPK 010520Z 0106/0206 13003KT P6SM SKC
     FM011400 14007KT P6SM BKN250
     FM011700 17009KT P6SM SCT050 BKN150=


 Latest METARs (Observations) 
How to Decode METARs
10Z KBPK 010953Z AUTO 13003KT 9SM CLR 17/12 A2987 RMK AO2 SLP105
         T01670122
         
09Z KBPK 010853Z AUTO 14003KT 9SM CLR 18/12 A2987 RMK AO2 SLP104
         T01780122 58005
         
08Z KBPK 010753Z AUTO 14003KT 9SM CLR 17/12 A2987 RMK AO2 SLP107
         T01670122
         
07Z KBPK 010653Z AUTO 00000KT 9SM CLR 18/13 A2988 RMK AO2 SLP109
         T01780128
         
06Z KBPK 010553Z AUTO 10003KT 9SM CLR 17/13 A2988 RMK AO2 SLP109
         T01720128 10239 20172 402940144 51003
         
05Z KBPK 010453Z AUTO 12004KT 9SM CLR 19/12 A2988 RMK AO2 SLP109
         T01940122
         
04Z KBPK 010353Z AUTO 00000KT 10SM CLR 20/13 A2988 RMK AO2 SLP108
         T02000128
         
03Z KBPK 010253Z AUTO 10004KT 10SM CLR 21/13 A2987 RMK AO2 SLP107
         T02060133 53002
         
02Z KBPK 010153Z AUTO 08005KT 10SM CLR 22/13 A2987 RMK AO2 SLP107
         T02170133
         
01Z KBPK 010053Z AUTO 09005KT 10SM CLR 23/13 A2987 RMK AO2 SLP106
         T02280133
         
***** Today's Observations (Above) *****


Back to Main Page
http://www.srh.noaa.gov/lzk/qfcst.php

USA.gov is the U.S. government's official web portal to all federal, state and local government web resources and services.